createdAt,value
2022-10-22T00:00:13.431Z,90.97
2022-10-22T00:02:41.814Z,90.94
2022-10-22T00:05:09.468Z,90.54
2022-10-22T00:07:36.099Z,90.36
2022-10-22T00:10:04.877Z,89.83
2022-10-22T00:12:31.670Z,89.43
2022-10-22T00:14:58.618Z,89.81
2022-10-22T00:17:25.161Z,91.27
2022-10-22T00:19:51.842Z,93.10
2022-10-22T00:22:19.153Z,93.93
2022-10-22T00:24:46.742Z,94.68
2022-10-22T00:27:14.005Z,93.78
2022-10-22T00:29:41.454Z,92.48
2022-10-22T00:32:08.026Z,91.92
2022-10-22T00:34:40.719Z,91.47
2022-10-22T00:37:07.422Z,90.30
2022-10-22T00:39:34.008Z,90.04
2022-10-22T00:42:02.466Z,89.59
2022-10-22T00:45:03.321Z,89.14
2022-10-22T00:47:36.879Z,89.02
2022-10-22T00:50:09.024Z,88.72
2022-10-22T00:52:36.571Z,88.46
2022-10-22T00:55:03.723Z,88.43
2022-10-22T00:57:31.324Z,88.95
2022-10-22T00:59:58.555Z,88.42
2022-10-22T01:02:25.333Z,88.58
2022-10-22T01:04:51.854Z,88.63
2022-10-22T01:07:23.994Z,88.70
2022-10-22T01:10:08.928Z,88.79
2022-10-22T01:13:03.758Z,89.07
2022-10-22T01:15:43.525Z,88.41
2022-10-22T01:18:36.202Z,88.81
2022-10-22T01:21:25.115Z,88.88
2022-10-22T01:23:54.787Z,89.13
2022-10-22T01:29:09.327Z,89.05
2022-10-22T01:31:44.457Z,89.56
2022-10-22T01:34:13.972Z,89.15
2022-10-22T01:36:42.200Z,89.28
2022-10-22T01:39:09.087Z,90.04
2022-10-22T01:41:35.784Z,90.44
2022-10-22T01:44:02.349Z,90.92
2022-10-22T01:46:29.578Z,90.53
2022-10-22T01:49:20.608Z,90.50
2022-10-22T01:52:15.481Z,89.84
2022-10-22T01:54:52.073Z,89.48
2022-10-22T01:57:56.943Z,88.48
2022-10-22T02:00:23.886Z,88.69
2022-10-22T02:03:07.917Z,87.80
2022-10-22T02:05:43.413Z,86.91
2022-10-22T02:08:14.782Z,86.95
2022-10-22T02:10:46.451Z,86.01
2022-10-22T02:13:18.376Z,85.32
2022-10-22T02:15:48.464Z,85.63
2022-10-22T02:18:17.536Z,84.38
2022-10-22T02:20:44.252Z,84.02
2022-10-22T02:23:12.235Z,83.97
2022-10-22T02:25:42.508Z,83.64
2022-10-22T02:28:53.938Z,83.65
2022-10-22T02:31:26.240Z,83.86
2022-10-22T02:33:57.858Z,84.00
2022-10-22T02:36:25.552Z,84.15
2022-10-22T02:38:52.640Z,83.91
2022-10-22T02:41:20.653Z,83.53
2022-10-22T02:43:55.922Z,83.29
2022-10-22T02:46:24.715Z,83.66
2022-10-22T02:48:51.267Z,84.48
2022-10-22T02:51:18.374Z,85.06
2022-10-22T02:53:45.222Z,83.91
2022-10-22T02:56:12.717Z,84.04
2022-10-22T02:58:39.190Z,83.76
2022-10-22T03:01:05.898Z,82.99
2022-10-22T03:03:32.587Z,83.19
2022-10-22T03:05:59.033Z,83.53
2022-10-22T03:08:25.603Z,83.27
2022-10-22T03:10:53.721Z,82.91
2022-10-22T03:13:20.349Z,82.59
2022-10-22T03:15:49.732Z,82.09
2022-10-22T03:18:16.940Z,81.66
2022-10-22T03:20:44.489Z,81.59
2022-10-22T03:23:15.594Z,81.20
2022-10-22T03:25:44.541Z,81.31
2022-10-22T03:28:15.200Z,81.39
2022-10-22T03:30:41.686Z,80.42
2022-10-22T03:33:08.883Z,79.98
2022-10-22T03:35:42.901Z,79.78
2022-10-22T03:38:09.630Z,80.17
2022-10-22T03:40:36.137Z,80.87
2022-10-22T03:43:02.843Z,80.43
2022-10-22T03:45:29.530Z,80.41
2022-10-22T03:47:56.228Z,81.00
2022-10-22T03:50:23.010Z,80.98
2022-10-22T03:52:49.865Z,81.57
2022-10-22T03:55:16.572Z,81.78
2022-10-22T03:57:43.306Z,82.09
2022-10-22T04:00:10.495Z,81.89
2022-10-22T04:02:38.250Z,81.73
2022-10-22T04:05:05.078Z,82.46
2022-10-22T04:07:32.500Z,82.49
2022-10-22T04:09:59.397Z,82.38
2022-10-22T04:12:26.269Z,82.39
2022-10-22T04:14:52.773Z,82.32
2022-10-22T04:17:19.540Z,82.18
2022-10-22T04:19:46.127Z,82.31
2022-10-22T04:22:12.804Z,82.13
2022-10-22T04:24:39.373Z,82.10
2022-10-22T04:27:05.983Z,82.32
2022-10-22T04:29:32.752Z,82.38
2022-10-22T04:32:00.381Z,82.14
2022-10-22T04:34:28.735Z,82.38
2022-10-22T04:36:56.255Z,81.99
2022-10-22T04:39:22.769Z,82.46
2022-10-22T04:41:49.336Z,82.19
2022-10-22T04:44:18.265Z,82.29
2022-10-22T04:46:46.534Z,82.14
2022-10-22T04:49:13.077Z,82.63
2022-10-22T04:51:39.958Z,82.24
2022-10-22T04:54:07.529Z,82.87
2022-10-22T04:56:34.362Z,82.29
2022-10-22T04:59:04.609Z,82.04
2022-10-22T05:01:43.234Z,82.10
2022-10-22T05:04:16.819Z,82.48
2022-10-22T05:06:44.104Z,81.88
2022-10-22T05:09:14.140Z,82.05
2022-10-22T05:11:45.339Z,81.87
2022-10-22T05:14:12.741Z,82.01
2022-10-22T05:16:40.303Z,81.67
2022-10-22T05:19:09.651Z,82.19
2022-10-22T05:21:37.641Z,82.12
2022-10-22T05:24:05.814Z,81.87
2022-10-22T05:26:32.625Z,82.04
2022-10-22T05:28:59.380Z,82.38
2022-10-22T05:31:26.166Z,81.89
2022-10-22T05:33:52.877Z,81.78
2022-10-22T05:36:21.978Z,82.03
2022-10-22T05:38:49.646Z,82.02
2022-10-22T05:41:18.691Z,82.20
2022-10-22T05:43:46.091Z,82.54
2022-10-22T05:46:22.522Z,82.38
2022-10-22T05:48:53.860Z,82.76
2022-10-22T05:51:21.501Z,83.08
2022-10-22T05:53:55.256Z,82.89
2022-10-22T05:56:24.802Z,83.10
2022-10-22T05:58:52.810Z,82.87
2022-10-22T06:01:22.843Z,83.18
2022-10-22T06:03:53.965Z,82.63
2022-10-22T06:06:35.880Z,82.92
2022-10-22T06:09:15.100Z,82.85
2022-10-22T06:11:41.958Z,83.38
2022-10-22T06:14:09.885Z,83.31
2022-10-22T06:16:37.278Z,83.07
2022-10-22T06:19:03.944Z,82.98
2022-10-22T06:21:31.696Z,82.81
2022-10-22T06:24:00.767Z,83.15
2022-10-22T06:26:27.462Z,82.65
2022-10-22T06:28:57.043Z,83.30
2022-10-22T06:31:25.716Z,83.70
2022-10-22T06:33:52.480Z,97.41
2022-10-22T06:36:22.061Z,92.81
2022-10-22T06:38:52.491Z,86.17
2022-10-22T06:41:19.518Z,83.71
2022-10-22T06:43:47.201Z,81.68
2022-10-22T06:46:20.224Z,80.50
2022-10-22T06:49:03.134Z,79.45
2022-10-22T06:51:30.869Z,78.39
2022-10-22T06:53:58.612Z,77.55
2022-10-22T06:56:27.772Z,75.64
2022-10-22T06:58:56.871Z,76.98
2022-10-22T07:01:27.131Z,76.84
2022-10-22T07:03:54.241Z,78.32
2022-10-22T07:06:24.084Z,77.27
2022-10-22T07:08:51.464Z,77.25
2022-10-22T07:11:30.687Z,77.31
2022-10-22T07:14:00.231Z,77.25
2022-10-22T07:16:31.103Z,77.67
2022-10-22T07:19:00.451Z,77.70
2022-10-22T07:21:27.784Z,79.37
2022-10-22T07:23:54.468Z,79.59
2022-10-22T07:26:21.394Z,80.19
2022-10-22T07:28:48.511Z,80.64
2022-10-22T07:31:16.013Z,80.89
2022-10-22T07:33:42.817Z,79.90
2022-10-22T07:36:17.506Z,79.88
2022-10-22T07:38:56.154Z,80.33
2022-10-22T07:41:23.801Z,79.17
2022-10-22T07:43:51.060Z,76.58
2022-10-22T07:46:18.336Z,74.75
2022-10-22T07:48:44.937Z,73.34
2022-10-22T07:51:11.894Z,71.02
2022-10-22T07:53:38.571Z,68.84
2022-10-22T07:56:06.798Z,68.45
2022-10-22T07:58:34.248Z,67.77
2022-10-22T08:01:02.447Z,68.19
2022-10-22T08:03:29.676Z,65.50
2022-10-22T08:05:56.241Z,65.51
2022-10-22T08:08:27.150Z,64.04
2022-10-22T08:10:59.274Z,64.05
2022-10-22T08:13:26.509Z,62.88
2022-10-22T08:15:57.340Z,61.81
2022-10-22T08:18:25.749Z,61.73
2022-10-22T08:20:53.734Z,61.03
2022-10-22T08:23:24.466Z,60.66
2022-10-22T08:25:55.450Z,61.14
2022-10-22T08:28:23.146Z,60.78
2022-10-22T08:30:50.193Z,60.68
2022-10-22T08:33:17.104Z,59.93
2022-10-22T08:35:51.118Z,60.29
2022-10-22T08:38:18.565Z,59.79
2022-10-22T08:40:51.763Z,59.59
2022-10-22T08:43:32.869Z,59.00
2022-10-22T08:46:24.080Z,58.68
2022-10-22T08:49:00.305Z,58.38
2022-10-22T08:51:32.564Z,58.01
2022-10-22T08:54:18.148Z,57.78
2022-10-22T08:56:50.498Z,57.43
2022-10-22T08:59:33.318Z,57.44
2022-10-22T09:02:00.403Z,57.25
2022-10-22T09:04:32.678Z,57.40
2022-10-22T09:07:00.749Z,57.08
2022-10-22T09:09:36.755Z,57.65
2022-10-22T09:12:05.801Z,58.46
2022-10-22T09:14:33.528Z,58.73
2022-10-22T09:17:26.441Z,57.40
2022-10-22T09:20:17.618Z,56.36
2022-10-22T09:23:16.917Z,56.54
2022-10-22T09:25:46.924Z,56.14
2022-10-22T09:28:13.891Z,56.33
2022-10-22T09:30:41.730Z,56.05
2022-10-22T09:33:11.117Z,55.96
2022-10-22T09:35:56.147Z,56.02
2022-10-22T09:38:28.822Z,55.82
2022-10-22T09:40:57.516Z,55.67
2022-10-22T09:43:24.426Z,56.05
2022-10-22T09:46:00.552Z,56.13
2022-10-22T09:48:40.588Z,56.98
2022-10-22T09:51:15.437Z,57.08
2022-10-22T09:53:44.701Z,55.63
2022-10-22T09:56:33.842Z,55.03
2022-10-22T09:59:00.334Z,55.83
2022-10-22T10:01:30.422Z,55.58
2022-10-22T10:04:10.221Z,55.91
2022-10-22T10:06:41.933Z,56.03
2022-10-22T10:09:20.872Z,55.70
2022-10-22T10:12:14.103Z,54.81
2022-10-22T10:15:22.146Z,54.30
2022-10-22T10:17:48.574Z,54.57
2022-10-22T10:20:35.189Z,53.69
2022-10-22T10:23:14.349Z,54.10
2022-10-22T10:25:57.882Z,55.07
2022-10-22T10:28:52.629Z,55.04
2022-10-22T10:31:35.366Z,54.53
2022-10-22T10:34:05.563Z,54.99
2022-10-22T10:36:40.190Z,54.70
2022-10-22T10:39:12.969Z,54.82
2022-10-22T10:42:12.125Z,55.04
2022-10-22T10:44:50.892Z,55.52
2022-10-22T10:47:45.308Z,54.48
2022-10-22T10:50:26.249Z,55.51
2022-10-22T10:53:04.328Z,55.76
2022-10-22T10:55:35.798Z,55.87
2022-10-22T10:58:21.740Z,54.21
2022-10-22T11:00:56.906Z,54.15
2022-10-22T11:03:44.541Z,54.51
2022-10-22T11:06:19.409Z,54.55
2022-10-22T11:09:02.147Z,54.78
2022-10-22T11:11:35.261Z,55.75
2022-10-22T11:14:14.625Z,53.63
2022-10-22T11:16:46.821Z,53.88
2022-10-22T11:19:46.236Z,54.09
2022-10-22T11:22:19.932Z,54.29
2022-10-22T11:25:07.117Z,54.31
2022-10-22T11:27:41.057Z,54.83
2022-10-22T11:30:20.312Z,55.63
2022-10-22T11:32:53.070Z,56.31
2022-10-22T11:35:26.043Z,55.62
2022-10-22T11:37:55.529Z,54.85
2022-10-22T11:40:35.759Z,55.21
2022-10-22T11:43:06.736Z,56.30
2022-10-22T11:45:42.718Z,55.96
2022-10-22T11:48:19.472Z,54.79
2022-10-22T11:50:57.529Z,54.67
2022-10-22T11:53:35.301Z,54.29
2022-10-22T11:56:07.804Z,53.67
2022-10-22T11:58:39.615Z,54.33
2022-10-22T12:01:10.279Z,54.08
2022-10-22T12:03:58.587Z,54.45
2022-10-22T12:06:27.871Z,54.28
2022-10-22T12:08:54.767Z,54.76
2022-10-22T12:11:48.374Z,54.99
2022-10-22T12:14:19.904Z,54.92
2022-10-22T12:16:58.194Z,54.90
2022-10-22T12:19:38.337Z,55.18
2022-10-22T12:22:07.862Z,56.08
2022-10-22T12:24:38.500Z,56.76
2022-10-22T12:27:22.839Z,54.95
2022-10-22T12:29:57.625Z,54.54
2022-10-22T12:32:33.794Z,52.53
2022-10-22T12:35:06.858Z,52.94
2022-10-22T12:37:37.178Z,52.80
2022-10-22T12:40:24.103Z,52.73
2022-10-22T12:42:53.520Z,52.06
2022-10-22T12:45:21.001Z,53.48
2022-10-22T12:47:50.279Z,53.88
2022-10-22T12:50:25.825Z,54.16
2022-10-22T12:52:54.404Z,54.45
2022-10-22T12:55:25.901Z,53.21
2022-10-22T12:57:53.431Z,52.66
2022-10-22T13:00:21.758Z,52.83
2022-10-22T13:02:48.728Z,52.49
2022-10-22T13:05:25.010Z,53.60
2022-10-22T13:08:17.899Z,54.21
2022-10-22T13:10:51.622Z,53.90
2022-10-22T13:13:42.474Z,53.83
2022-10-22T13:16:20.656Z,53.65
2022-10-22T13:18:48.644Z,53.71
2022-10-22T13:21:38.165Z,53.70
2022-10-22T13:24:22.968Z,53.36
2022-10-22T13:26:53.794Z,52.84
2022-10-22T13:29:23.186Z,52.63
2022-10-22T13:31:53.067Z,52.66
2022-10-22T13:34:25.639Z,53.05
2022-10-22T13:36:52.496Z,53.21
2022-10-22T13:39:24.849Z,53.13
2022-10-22T13:41:51.971Z,53.21
2022-10-22T13:44:20.043Z,53.90
2022-10-22T13:46:51.562Z,54.10
2022-10-22T13:49:23.428Z,53.88
2022-10-22T13:51:51.326Z,54.23
2022-10-22T13:54:22.655Z,53.38
2022-10-22T13:56:49.187Z,54.05
2022-10-22T13:59:18.378Z,53.69
2022-10-22T14:01:47.913Z,54.02
2022-10-22T14:04:15.753Z,54.58
2022-10-22T14:06:43.017Z,54.61
2022-10-22T14:09:15.154Z,54.85
2022-10-22T14:11:43.366Z,55.02
2022-10-22T14:14:14.344Z,55.35
2022-10-22T14:16:41.741Z,54.60
2022-10-22T14:19:15.754Z,54.90
2022-10-22T14:21:43.660Z,54.88
2022-10-22T14:24:13.066Z,53.72
2022-10-22T14:26:40.317Z,54.16
2022-10-22T14:29:11.525Z,54.35
2022-10-22T14:34:13.524Z,56.17
2022-10-22T14:36:40.288Z,56.17
2022-10-22T14:39:07.102Z,56.12
2022-10-22T14:41:33.822Z,56.32
2022-10-22T14:44:00.864Z,56.28
2022-10-22T14:46:27.426Z,56.51
2022-10-22T14:48:54.551Z,56.84
2022-10-22T14:51:21.582Z,56.94
2022-10-22T14:53:50.601Z,57.81
2022-10-22T14:56:21.226Z,58.71
2022-10-22T14:58:48.016Z,59.16
2022-10-22T15:01:15.124Z,59.78
2022-10-22T15:03:41.776Z,59.98
2022-10-22T15:06:08.485Z,59.81
2022-10-22T15:08:35.316Z,60.51
2022-10-22T15:11:08.008Z,60.42
2022-10-22T15:13:35.155Z,60.62
2022-10-22T15:16:05.540Z,60.70
2022-10-22T15:18:32.494Z,60.84
2022-10-22T15:21:01.114Z,60.57
2022-10-22T15:23:28.704Z,60.42
2022-10-22T15:25:56.385Z,60.10
2022-10-22T15:28:24.075Z,59.65
2022-10-22T15:31:00.084Z,59.83
2022-10-22T15:33:28.456Z,60.13
2022-10-22T15:35:55.711Z,60.20
2022-10-22T15:38:26.679Z,60.53
2022-10-22T15:41:05.801Z,60.73
2022-10-22T15:43:33.575Z,60.89
2022-10-22T15:46:18.378Z,61.18
2022-10-22T15:48:45.681Z,62.11
2022-10-22T15:51:15.106Z,63.07
2022-10-22T15:53:42.090Z,63.57
2022-10-22T15:56:10.018Z,63.84
2022-10-22T15:58:37.589Z,64.24
2022-10-22T16:01:09.345Z,65.16
2022-10-22T16:03:36.231Z,66.02
2022-10-22T16:06:04.139Z,66.59
2022-10-22T16:08:31.002Z,67.98
2022-10-22T16:10:58.573Z,67.59
2022-10-22T16:13:26.492Z,68.40
2022-10-22T16:15:53.994Z,69.26
2022-10-22T16:18:23.824Z,70.24
2022-10-22T16:20:50.756Z,70.24
2022-10-22T16:23:19.055Z,70.45
2022-10-22T16:25:46.324Z,70.62
2022-10-22T16:28:14.379Z,70.92
2022-10-22T16:30:41.763Z,71.20
2022-10-22T16:33:10.572Z,71.60
2022-10-22T16:35:41.965Z,72.09
2022-10-22T16:38:10.383Z,71.94
2022-10-22T16:40:40.001Z,72.59
2022-10-22T16:43:08.294Z,73.14
2022-10-22T16:45:34.854Z,72.97
2022-10-22T16:48:01.709Z,73.09
2022-10-22T16:50:28.471Z,73.66
2022-10-22T16:52:55.869Z,73.93
2022-10-22T16:55:23.201Z,73.81
2022-10-22T16:57:52.477Z,73.96
2022-10-22T17:00:20.113Z,74.14
2022-10-22T17:02:51.584Z,75.25
2022-10-22T17:05:18.369Z,75.51
2022-10-22T17:07:46.040Z,76.38
2022-10-22T17:10:12.819Z,78.16
2022-10-22T17:12:41.131Z,77.76
2022-10-22T17:15:08.409Z,77.71
2022-10-22T17:17:35.214Z,78.35
2022-10-22T17:20:02.281Z,77.90
2022-10-22T17:22:28.851Z,78.16
2022-10-22T17:25:11.397Z,78.71
2022-10-22T17:27:38.980Z,78.35
2022-10-22T17:30:12.908Z,78.40
2022-10-22T17:32:40.105Z,78.20
2022-10-22T17:35:11.657Z,77.76
2022-10-22T17:37:40.707Z,77.91
2022-10-22T17:40:08.509Z,78.08
2022-10-22T17:42:35.049Z,78.25
2022-10-22T17:45:01.839Z,79.02
2022-10-22T17:47:28.866Z,80.27
2022-10-22T17:49:55.506Z,81.63
2022-10-22T17:52:23.030Z,82.14
2022-10-22T17:54:50.551Z,81.32
2022-10-22T17:57:17.482Z,80.22
2022-10-22T17:59:44.190Z,79.34
2022-10-22T18:02:16.548Z,79.32
2022-10-22T18:04:43.773Z,80.09
2022-10-22T18:07:10.238Z,80.08
2022-10-22T18:09:37.356Z,81.72
2022-10-22T18:12:03.962Z,82.22
2022-10-22T18:14:30.525Z,82.97
2022-10-22T18:16:57.229Z,82.40
2022-10-22T18:19:24.797Z,81.97
2022-10-22T18:21:51.788Z,81.97
2022-10-22T18:24:19.323Z,82.54
2022-10-22T18:26:46.242Z,83.64
2022-10-22T18:29:15.995Z,83.94
2022-10-22T18:31:42.792Z,83.91
2022-10-22T18:34:09.421Z,83.70
2022-10-22T18:36:40.639Z,83.51
2022-10-22T18:39:08.748Z,83.86
2022-10-22T18:41:36.352Z,84.34
2022-10-22T18:44:05.550Z,84.25
2022-10-22T18:46:39.879Z,84.50
2022-10-22T18:49:07.759Z,85.50
2022-10-22T18:51:35.537Z,85.39
2022-10-22T18:54:21.701Z,85.30
2022-10-22T18:56:49.066Z,85.44
2022-10-22T18:59:24.712Z,85.63
2022-10-22T19:01:55.947Z,84.87
2022-10-22T19:04:22.677Z,84.75
2022-10-22T19:06:49.328Z,84.94
2022-10-22T19:09:16.150Z,84.59
2022-10-22T19:11:44.824Z,84.08
2022-10-22T19:14:13.244Z,83.59
2022-10-22T19:16:40.166Z,83.49
2022-10-22T19:19:08.005Z,82.96
2022-10-22T19:21:37.362Z,82.23
2022-10-22T19:24:04.213Z,82.86
2022-10-22T19:26:31.224Z,83.50
2022-10-22T19:28:59.697Z,83.68
2022-10-22T19:31:27.332Z,84.11
2022-10-22T19:33:55.348Z,84.15
2022-10-22T19:36:24.740Z,83.79
2022-10-22T19:38:52.129Z,83.67
2022-10-22T19:41:22.069Z,83.41
2022-10-22T19:43:51.117Z,83.86
2022-10-22T19:46:19.918Z,84.30
2022-10-22T19:48:48.768Z,83.98
2022-10-22T19:51:19.090Z,83.68
2022-10-22T19:53:47.135Z,84.83
2022-10-22T19:56:17.855Z,84.96
2022-10-22T19:58:46.353Z,85.24
2022-10-22T20:01:15.835Z,85.96
2022-10-22T20:03:42.744Z,85.16
2022-10-22T20:06:11.247Z,85.40
2022-10-22T20:08:38.486Z,84.56
2022-10-22T20:11:17.340Z,84.38
2022-10-22T20:13:46.604Z,85.95
2022-10-22T20:16:18.132Z,85.77
2022-10-22T20:18:44.992Z,85.70
2022-10-22T20:21:16.184Z,85.97
2022-10-22T20:23:43.668Z,87.20
2022-10-22T20:26:10.933Z,87.34
2022-10-22T20:28:38.706Z,86.52
2022-10-22T20:31:13.202Z,86.99
2022-10-22T20:33:39.821Z,87.00
2022-10-22T20:36:11.352Z,87.42
2022-10-22T20:38:38.399Z,87.77
2022-10-22T20:41:11.424Z,87.84
2022-10-22T20:43:38.833Z,88.39
2022-10-22T20:46:05.896Z,87.77
2022-10-22T20:48:32.848Z,88.50
2022-10-22T20:51:00.255Z,88.48
2022-10-22T20:53:28.671Z,88.75
2022-10-22T20:55:59.017Z,87.76
2022-10-22T20:58:27.155Z,87.73
2022-10-22T21:00:56.939Z,88.09
2022-10-22T21:03:23.868Z,87.72
2022-10-22T21:05:50.598Z,88.01
2022-10-22T21:08:17.710Z,88.40
2022-10-22T21:10:49.253Z,88.34
2022-10-22T21:13:16.795Z,87.70
2022-10-22T21:15:44.046Z,88.28
2022-10-22T21:18:10.977Z,88.37
2022-10-22T21:20:39.360Z,88.47
2022-10-22T21:23:06.308Z,88.52
2022-10-22T21:25:39.500Z,88.97
2022-10-22T21:28:10.501Z,88.65
2022-10-22T21:30:36.954Z,88.38
2022-10-22T21:33:03.794Z,87.52
2022-10-22T21:35:30.436Z,86.89
2022-10-22T21:37:57.072Z,86.89
2022-10-22T21:40:23.560Z,86.11
2022-10-22T21:42:51.148Z,86.76
2022-10-22T21:45:22.139Z,87.02
2022-10-22T21:47:49.051Z,86.94
2022-10-22T21:50:15.767Z,87.27
2022-10-22T21:52:42.422Z,87.73
2022-10-22T21:55:09.456Z,88.06
2022-10-22T21:57:36.164Z,88.38
2022-10-22T22:00:04.153Z,88.33
2022-10-22T22:02:31.633Z,88.23
2022-10-22T22:04:58.718Z,87.48
2022-10-22T22:07:25.529Z,86.99
2022-10-22T22:09:52.153Z,85.75
2022-10-22T22:12:20.516Z,84.85
2022-10-22T22:14:47.612Z,84.39
2022-10-22T22:17:18.918Z,83.78
2022-10-22T22:19:46.077Z,83.54
2022-10-22T22:22:12.752Z,83.95
2022-10-22T22:24:39.952Z,84.23
2022-10-22T22:27:08.031Z,85.90
2022-10-22T22:29:35.029Z,85.59
2022-10-22T22:32:02.649Z,85.30
2022-10-22T22:34:30.955Z,84.66
2022-10-22T22:37:02.720Z,85.25
2022-10-22T22:39:29.391Z,85.58
2022-10-22T22:41:55.848Z,85.85
2022-10-22T22:44:22.331Z,86.21
2022-10-22T22:46:48.861Z,87.86
2022-10-22T22:49:15.470Z,87.86
2022-10-22T22:51:44.132Z,87.60
2022-10-22T22:54:11.144Z,86.94
2022-10-22T22:56:37.711Z,86.73
2022-10-22T22:59:05.818Z,86.41
2022-10-22T23:01:37.791Z,85.96
2022-10-22T23:04:11.984Z,88.01
2022-10-22T23:06:40.093Z,88.52
2022-10-22T23:09:09.497Z,87.94
2022-10-22T23:11:36.396Z,88.05
2022-10-22T23:14:05.966Z,88.06
2022-10-22T23:16:36.684Z,87.57
2022-10-22T23:19:04.707Z,86.54
2022-10-22T23:21:35.271Z,85.49
2022-10-22T23:24:04.933Z,85.56
2022-10-22T23:26:38.453Z,85.62
2022-10-22T23:29:23.201Z,85.61
2022-10-22T23:31:50.796Z,85.62
2022-10-22T23:34:22.994Z,86.16
2022-10-22T23:36:50.280Z,85.80
2022-10-22T23:39:20.032Z,84.96
2022-10-22T23:41:48.841Z,85.23
2022-10-22T23:44:15.697Z,84.50
2022-10-22T23:46:44.057Z,85.47
2022-10-22T23:49:10.861Z,85.95
2022-10-22T23:51:38.696Z,83.07
2022-10-22T23:54:10.737Z,82.63
2022-10-22T23:56:37.339Z,83.61
2022-10-22T23:59:05.593Z,83.40
